sensor_id;sensor_type;location;lat;lon;timestamp;pressure;altitude;pressure_sealevel;temperature;humidity
61039;BME280;46919;45.816;3.104;2023-03-13T00:01:57;97670.56;;;11.20;92.68
61039;BME280;46919;45.816;3.104;2023-03-13T00:04:23;97673.25;;;11.20;93.08
61039;BME280;46919;45.816;3.104;2023-03-13T00:06:48;97676.91;;;11.14;93.79
61039;BME280;46919;45.816;3.104;2023-03-13T00:09:15;97677.38;;;11.11;94.11
61039;BME280;46919;45.816;3.104;2023-03-13T00:11:41;97676.91;;;11.14;93.79
61039;BME280;46919;45.816;3.104;2023-03-13T00:14:08;97673.59;;;11.12;93.68
61039;BME280;46919;45.816;3.104;2023-03-13T00:16:34;97670.75;;;11.06;95.31
61039;BME280;46919;45.816;3.104;2023-03-13T00:19:02;97673.34;;;11.01;95.75
61039;BME280;46919;45.816;3.104;2023-03-13T00:21:28;97675.00;;;11.02;95.45
61039;BME280;46919;45.816;3.104;2023-03-13T00:23:54;97664.78;;;11.04;95.06
61039;BME280;46919;45.816;3.104;2023-03-13T00:26:22;97668.53;;;11.03;95.28
61039;BME280;46919;45.816;3.104;2023-03-13T00:28:48;97675.00;;;11.02;95.43
61039;BME280;46919;45.816;3.104;2023-03-13T00:31:23;97673.94;;;11.03;95.50
61039;BME280;46919;45.816;3.104;2023-03-13T00:33:52;97671.84;;;11.05;95.53
61039;BME280;46919;45.816;3.104;2023-03-13T00:36:20;97665.00;;;11.03;95.69
61039;BME280;46919;45.816;3.104;2023-03-13T00:38:46;97668.41;;;10.98;96.35
61039;BME280;46919;45.816;3.104;2023-03-13T00:41:17;97666.16;;;10.95;97.75
61039;BME280;46919;45.816;3.104;2023-03-13T00:43:43;97665.94;;;10.97;97.29
61039;BME280;46919;45.816;3.104;2023-03-13T00:46:10;97663.22;;;10.97;96.96
61039;BME280;46919;45.816;3.104;2023-03-13T00:48:36;97670.75;;;10.95;97.27
61039;BME280;46919;45.816;3.104;2023-03-13T00:51:03;97651.94;;;10.88;98.54
61039;BME280;46919;45.816;3.104;2023-03-13T00:53:28;97651.56;;;10.84;99.10
61039;BME280;46919;45.816;3.104;2023-03-13T00:58:21;97648.63;;;10.86;98.89
61039;BME280;46919;45.816;3.104;2023-03-13T01:00:47;97657.34;;;10.88;98.63
61039;BME280;46919;45.816;3.104;2023-03-13T01:03:13;97654.41;;;10.90;97.55
61039;BME280;46919;45.816;3.104;2023-03-13T01:05:38;97654.66;;;10.88;97.58
61039;BME280;46919;45.816;3.104;2023-03-13T01:08:04;97657.44;;;10.81;97.98
61039;BME280;46919;45.816;3.104;2023-03-13T01:10:29;97651.56;;;10.73;98.54
61039;BME280;46919;45.816;3.104;2023-03-13T01:12:55;97646.47;;;10.64;98.93
61039;BME280;46919;45.816;3.104;2023-03-13T01:15:20;97641.16;;;10.58;99.01
61039;BME280;46919;45.816;3.104;2023-03-13T01:17:45;97626.94;;;10.50;99.30
61039;BME280;46919;45.816;3.104;2023-03-13T01:20:11;97621.03;;;10.42;100.00
61039;BME280;46919;45.816;3.104;2023-03-13T01:22:37;97617.16;;;10.38;100.00
61039;BME280;46919;45.816;3.104;2023-03-13T01:25:03;97614.22;;;10.39;100.00
61039;BME280;46919;45.816;3.104;2023-03-13T01:27:30;97615.72;;;10.35;100.00
61039;BME280;46919;45.816;3.104;2023-03-13T01:29:55;97606.66;;;10.29;100.00
61039;BME280;46919;45.816;3.104;2023-03-13T01:32:21;97594.88;;;10.24;100.00
61039;BME280;46919;45.816;3.104;2023-03-13T01:34:47;97590.06;;;10.26;100.00
61039;BME280;46919;45.816;3.104;2023-03-13T01:37:12;97582.81;;;10.26;100.00
61039;BME280;46919;45.816;3.104;2023-03-13T01:39:37;97580.59;;;10.35;100.00
61039;BME280;46919;45.816;3.104;2023-03-13T01:42:03;97576.41;;;10.39;99.94
61039;BME280;46919;45.816;3.104;2023-03-13T01:44:46;97567.44;;;10.39;100.00
61039;BME280;46919;45.816;3.104;2023-03-13T01:47:12;97575.06;;;10.30;100.00
61039;BME280;46919;45.816;3.104;2023-03-13T01:49:38;97575.06;;;10.30;100.00
61039;BME280;46919;45.816;3.104;2023-03-13T01:52:14;97576.78;;;10.24;100.00
61039;BME280;46919;45.816;3.104;2023-03-13T01:57:43;97577.84;;;10.23;100.00
61039;BME280;46919;45.816;3.104;2023-03-13T02:00:15;97578.09;;;10.22;100.00
61039;BME280;46919;45.816;3.104;2023-03-13T02:02:45;97559.41;;;10.20;100.00
61039;BME280;46919;45.816;3.104;2023-03-13T02:05:12;97566.91;;;10.18;100.00
61039;BME280;46919;45.816;3.104;2023-03-13T02:07:45;97559.88;;;10.17;100.00
61039;BME280;46919;45.816;3.104;2023-03-13T02:10:12;97557.97;;;10.06;100.00
61039;BME280;46919;45.816;3.104;2023-03-13T02:12:39;97554.06;;;10.02;100.00
61039;BME280;46919;45.816;3.104;2023-03-13T02:15:11;97556.63;;;9.96;100.00
61039;BME280;46919;45.816;3.104;2023-03-13T02:17:38;97558.59;;;9.89;100.00
61039;BME280;46919;45.816;3.104;2023-03-13T02:20:06;97553.63;;;9.86;100.00
61039;BME280;46919;45.816;3.104;2023-03-13T02:28:00;97541.53;;;9.77;100.00
61039;BME280;46919;45.816;3.104;2023-03-13T02:30:26;97541.53;;;9.77;100.00
61039;BME280;46919;45.816;3.104;2023-03-13T02:32:52;97535.53;;;9.75;100.00
61039;BME280;46919;45.816;3.104;2023-03-13T02:35:20;97534.13;;;9.72;100.00
61039;BME280;46919;45.816;3.104;2023-03-13T02:37:53;97522.16;;;9.80;100.00
61039;BME280;46919;45.816;3.104;2023-03-13T02:40:24;97533.59;;;9.94;100.00
61039;BME280;46919;45.816;3.104;2023-03-13T02:42:51;97528.25;;;10.06;100.00
61039;BME280;46919;45.816;3.104;2023-03-13T02:45:19;97530.03;;;10.12;100.00
61039;BME280;46919;45.816;3.104;2023-03-13T02:47:44;97527.34;;;10.12;100.00
61039;BME280;46919;45.816;3.104;2023-03-13T02:50:10;97527.91;;;10.14;100.00
61039;BME280;46919;45.816;3.104;2023-03-13T02:52:40;97523.47;;;10.20;100.00
61039;BME280;46919;45.816;3.104;2023-03-13T02:55:17;97519.38;;;10.17;100.00
61039;BME280;46919;45.816;3.104;2023-03-13T02:57:46;97517.94;;;10.14;100.00
61039;BME280;46919;45.816;3.104;2023-03-13T03:00:12;97511.13;;;10.12;100.00
61039;BME280;46919;45.816;3.104;2023-03-13T03:02:38;97518.53;;;10.16;100.00
61039;BME280;46919;45.816;3.104;2023-03-13T03:05:04;97507.50;;;10.18;100.00
61039;BME280;46919;45.816;3.104;2023-03-13T03:07:30;97516.78;;;10.22;100.00
61039;BME280;46919;45.816;3.104;2023-03-13T03:09:55;97511.03;;;10.30;100.00
61039;BME280;46919;45.816;3.104;2023-03-13T03:12:21;97517.97;;;10.26;100.00
61039;BME280;46919;45.816;3.104;2023-03-13T03:14:46;97510.34;;;10.23;100.00
61039;BME280;46919;45.816;3.104;2023-03-13T03:17:12;97503.84;;;10.12;100.00
61039;BME280;46919;45.816;3.104;2023-03-13T03:19:37;97498.56;;;10.06;100.00
61039;BME280;46919;45.816;3.104;2023-03-13T03:22:02;97499.94;;;9.96;100.00
61039;BME280;46919;45.816;3.104;2023-03-13T03:24:28;97487.81;;;9.87;100.00
61039;BME280;46919;45.816;3.104;2023-03-13T03:26:53;97488.16;;;9.79;100.00
61039;BME280;46919;45.816;3.104;2023-03-13T03:29:19;97479.69;;;9.75;100.00
61039;BME280;46919;45.816;3.104;2023-03-13T03:31:44;97487.06;;;9.68;100.00
61039;BME280;46919;45.816;3.104;2023-03-13T03:34:10;97485.72;;;9.59;100.00
61039;BME280;46919;45.816;3.104;2023-03-13T03:36:35;97481.22;;;9.53;100.00
61039;BME280;46919;45.816;3.104;2023-03-13T03:39:01;97484.84;;;9.47;100.00
61039;BME280;46919;45.816;3.104;2023-03-13T03:41:26;97467.47;;;9.42;100.00
61039;BME280;46919;45.816;3.104;2023-03-13T03:43:52;97459.63;;;9.41;100.00
61039;BME280;46919;45.816;3.104;2023-03-13T03:46:17;97459.16;;;9.44;100.00
61039;BME280;46919;45.816;3.104;2023-03-13T03:48:42;97453.75;;;9.44;100.00
61039;BME280;46919;45.816;3.104;2023-03-13T03:51:08;97446.25;;;9.46;100.00
61039;BME280;46919;45.816;3.104;2023-03-13T03:53:34;97445.34;;;9.52;100.00
61039;BME280;46919;45.816;3.104;2023-03-13T03:56:00;97449.69;;;9.53;100.00
61039;BME280;46919;45.816;3.104;2023-03-13T03:58:25;97455.69;;;9.55;100.00
61039;BME280;46919;45.816;3.104;2023-03-13T04:00:51;97448.16;;;9.46;100.00
61039;BME280;46919;45.816;3.104;2023-03-13T04:03:16;97435.66;;;9.33;100.00
61039;BME280;46919;45.816;3.104;2023-03-13T04:05:42;97444.53;;;9.21;100.00
61039;BME280;46919;45.816;3.104;2023-03-13T04:08:08;97451.28;;;9.12;100.00
61039;BME280;46919;45.816;3.104;2023-03-13T04:10:34;97463.84;;;9.00;100.00
61039;BME280;46919;45.816;3.104;2023-03-13T04:13:00;97460.63;;;8.91;100.00
61039;BME280;46919;45.816;3.104;2023-03-13T04:15:26;97466.91;;;8.85;100.00
61039;BME280;46919;45.816;3.104;2023-03-13T04:17:52;97460.91;;;8.83;100.00
61039;BME280;46919;45.816;3.104;2023-03-13T04:20:17;97452.69;;;8.78;100.00
61039;BME280;46919;45.816;3.104;2023-03-13T04:22:43;97449.41;;;8.76;100.00
61039;BME280;46919;45.816;3.104;2023-03-13T04:25:09;97445.28;;;8.73;100.00
61039;BME280;46919;45.816;3.104;2023-03-13T04:27:35;97441.81;;;8.66;100.00
61039;BME280;46919;45.816;3.104;2023-03-13T04:30:00;97447.69;;;8.63;100.00
61039;BME280;46919;45.816;3.104;2023-03-13T04:32:26;97442.75;;;8.60;100.00
61039;BME280;46919;45.816;3.104;2023-03-13T04:34:51;97443.19;;;8.57;100.00
61039;BME280;46919;45.816;3.104;2023-03-13T04:37:17;97432.84;;;8.54;100.00
61039;BME280;46919;45.816;3.104;2023-03-13T04:39:43;97434.34;;;8.49;100.00
61039;BME280;46919;45.816;3.104;2023-03-13T04:42:11;97430.69;;;8.44;100.00
61039;BME280;46919;45.816;3.104;2023-03-13T04:44:37;97424.63;;;8.42;100.00
61039;BME280;46919;45.816;3.104;2023-03-13T04:47:03;97425.72;;;8.41;100.00
61039;BME280;46919;45.816;3.104;2023-03-13T04:49:28;97422.59;;;8.37;100.00
61039;BME280;46919;45.816;3.104;2023-03-13T04:51:54;97413.34;;;8.33;100.00
61039;BME280;46919;45.816;3.104;2023-03-13T04:54:19;97401.38;;;8.29;100.00
61039;BME280;46919;45.816;3.104;2023-03-13T04:56:44;97401.50;;;8.34;100.00
61039;BME280;46919;45.816;3.104;2023-03-13T04:59:11;97406.69;;;8.35;100.00
61039;BME280;46919;45.816;3.104;2023-03-13T05:01:37;97410.81;;;8.38;100.00
61039;BME280;46919;45.816;3.104;2023-03-13T05:04:02;97410.44;;;8.34;100.00
61039;BME280;46919;45.816;3.104;2023-03-13T05:06:28;97410.44;;;8.34;100.00
61039;BME280;46919;45.816;3.104;2023-03-13T05:08:54;97402.19;;;8.29;100.00
61039;BME280;46919;45.816;3.104;2023-03-13T05:11:19;97398.66;;;8.29;100.00
61039;BME280;46919;45.816;3.104;2023-03-13T05:13:45;97399.03;;;8.32;100.00
61039;BME280;46919;45.816;3.104;2023-03-13T05:16:10;97397.41;;;8.31;100.00
61039;BME280;46919;45.816;3.104;2023-03-13T05:18:35;97393.72;;;8.26;100.00
61039;BME280;46919;45.816;3.104;2023-03-13T05:21:02;97384.03;;;8.25;100.00
61039;BME280;46919;45.816;3.104;2023-03-13T05:23:27;97377.44;;;8.21;100.00
61039;BME280;46919;45.816;3.104;2023-03-13T05:25:53;97380.56;;;8.18;100.00
61039;BME280;46919;45.816;3.104;2023-03-13T05:28:18;97385.72;;;8.19;100.00
61039;BME280;46919;45.816;3.104;2023-03-13T05:30:43;97389.84;;;8.22;100.00
61039;BME280;46919;45.816;3.104;2023-03-13T05:33:09;97393.81;;;8.19;100.00
61039;BME280;46919;45.816;3.104;2023-03-13T05:35:34;97378.69;;;8.18;100.00
61039;BME280;46919;45.816;3.104;2023-03-13T05:38:00;97373.97;;;8.13;100.00
61039;BME280;46919;45.816;3.104;2023-03-13T05:40:25;97364.69;;;8.09;100.00
61039;BME280;46919;45.816;3.104;2023-03-13T05:42:50;97362.00;;;8.09;100.00
61039;BME280;46919;45.816;3.104;2023-03-13T05:45:16;97364.41;;;8.18;100.00
61039;BME280;46919;45.816;3.104;2023-03-13T05:47:41;97362.31;;;8.20;100.00
61039;BME280;46919;45.816;3.104;2023-03-13T05:50:07;97354.53;;;8.11;100.00
61039;BME280;46919;45.816;3.104;2023-03-13T05:52:33;97353.28;;;8.14;100.00
61039;BME280;46919;45.816;3.104;2023-03-13T05:54:59;97359.09;;;8.11;100.00
61039;BME280;46919;45.816;3.104;2023-03-13T05:57:24;97357.81;;;8.13;100.00
61039;BME280;46919;45.816;3.104;2023-03-13T05:59:50;97350.66;;;8.07;100.00
61039;BME280;46919;45.816;3.104;2023-03-13T06:02:15;97342.41;;;8.02;100.00
61039;BME280;46919;45.816;3.104;2023-03-13T06:04:41;97340.16;;;7.99;100.00
61039;BME280;46919;45.816;3.104;2023-03-13T06:07:06;97351.97;;;7.98;100.00
61039;BME280;46919;45.816;3.104;2023-03-13T06:09:32;97333.72;;;8.00;100.00
61039;BME280;46919;45.816;3.104;2023-03-13T06:11:57;97327.13;;;7.96;100.00
61039;BME280;46919;45.816;3.104;2023-03-13T06:14:23;97326.53;;;7.94;100.00
61039;BME280;46919;45.816;3.104;2023-03-13T06:16:49;97325.09;;;7.91;100.00
61039;BME280;46919;45.816;3.104;2023-03-13T06:19:14;97334.47;;;7.89;100.00
61039;BME280;46919;45.816;3.104;2023-03-13T06:21:40;97316.88;;;7.86;100.00
61039;BME280;46919;45.816;3.104;2023-03-13T06:24:06;97312.13;;;7.88;100.00
61039;BME280;46919;45.816;3.104;2023-03-13T06:26:31;97314.59;;;7.90;100.00
61039;BME280;46919;45.816;3.104;2023-03-13T06:28:57;97319.28;;;7.94;100.00
61039;BME280;46919;45.816;3.104;2023-03-13T06:31:22;97319.06;;;7.96;100.00
61039;BME280;46919;45.816;3.104;2023-03-13T06:33:52;97317.59;;;8.00;100.00
61039;BME280;46919;45.816;3.104;2023-03-13T06:36:17;97317.16;;;8.03;100.00
61039;BME280;46919;45.816;3.104;2023-03-13T06:38:43;97303.25;;;8.06;100.00
61039;BME280;46919;45.816;3.104;2023-03-13T06:41:08;97291.59;;;8.12;100.00
61039;BME280;46919;45.816;3.104;2023-03-13T06:43:34;97277.50;;;8.10;100.00
61039;BME280;46919;45.816;3.104;2023-03-13T06:46:02;97269.63;;;8.15;100.00
61039;BME280;46919;45.816;3.104;2023-03-13T06:48:29;97269.53;;;8.22;100.00
61039;BME280;46919;45.816;3.104;2023-03-13T06:50:54;97271.91;;;8.30;100.00
61039;BME280;46919;45.816;3.104;2023-03-13T06:53:21;97284.34;;;8.31;100.00
61039;BME280;46919;45.816;3.104;2023-03-13T06:55:46;97266.16;;;8.27;100.00
61039;BME280;46919;45.816;3.104;2023-03-13T06:58:13;97270.13;;;8.24;100.00
61039;BME280;46919;45.816;3.104;2023-03-13T07:00:39;97264.50;;;8.26;100.00
61039;BME280;46919;45.816;3.104;2023-03-13T07:03:06;97261.38;;;8.29;100.00
61039;BME280;46919;45.816;3.104;2023-03-13T07:05:32;97258.22;;;8.32;100.00
61039;BME280;46919;45.816;3.104;2023-03-13T07:07:57;97264.19;;;8.34;100.00
61039;BME280;46919;45.816;3.104;2023-03-13T07:10:23;97270.19;;;8.36;100.00
61039;BME280;46919;45.816;3.104;2023-03-13T07:12:48;97259.44;;;8.36;100.00
61039;BME280;46919;45.816;3.104;2023-03-13T07:15:14;97255.22;;;8.40;100.00
61039;BME280;46919;45.816;3.104;2023-03-13T07:17:39;97235.78;;;8.38;100.00
61039;BME280;46919;45.816;3.104;2023-03-13T07:20:05;97237.28;;;8.52;100.00
61039;BME280;46919;45.816;3.104;2023-03-13T07:22:35;97231.69;;;8.66;100.00
61039;BME280;46919;45.816;3.104;2023-03-13T07:25:00;97229.53;;;8.86;100.00
61039;BME280;46919;45.816;3.104;2023-03-13T07:27:26;97213.56;;;9.15;100.00
61039;BME280;46919;45.816;3.104;2023-03-13T07:29:51;97218.63;;;9.35;100.00
61039;BME280;46919;45.816;3.104;2023-03-13T07:32:16;97221.34;;;9.47;100.00
61039;BME280;46919;45.816;3.104;2023-03-13T07:34:42;97218.16;;;9.62;100.00
61039;BME280;46919;45.816;3.104;2023-03-13T07:37:11;97205.84;;;9.78;100.00
61039;BME280;46919;45.816;3.104;2023-03-13T07:39:37;97198.66;;;9.95;100.00
61039;BME280;46919;45.816;3.104;2023-03-13T07:42:02;97204.84;;;10.08;100.00
61039;BME280;46919;45.816;3.104;2023-03-13T07:44:28;97202.25;;;10.13;100.00
61039;BME280;46919;45.816;3.104;2023-03-13T07:46:53;97206.50;;;10.09;100.00
61039;BME280;46919;45.816;3.104;2023-03-13T07:49:18;97205.31;;;10.05;100.00
61039;BME280;46919;45.816;3.104;2023-03-13T07:51:44;97203.66;;;10.04;100.00
61039;BME280;46919;45.816;3.104;2023-03-13T07:54:12;97206.13;;;10.05;100.00
61039;BME280;46919;45.816;3.104;2023-03-13T07:56:38;97202.06;;;10.03;100.00
61039;BME280;46919;45.816;3.104;2023-03-13T07:59:04;97200.53;;;9.95;100.00
61039;BME280;46919;45.816;3.104;2023-03-13T08:01:29;97200.66;;;9.88;100.00
61039;BME280;46919;45.816;3.104;2023-03-13T08:03:55;97203.84;;;9.85;100.00
61039;BME280;46919;45.816;3.104;2023-03-13T08:06:23;97208.06;;;9.81;100.00
61039;BME280;46919;45.816;3.104;2023-03-13T08:08:49;97210.19;;;9.79;100.00
61039;BME280;46919;45.816;3.104;2023-03-13T08:11:20;97201.84;;;9.81;100.00
61039;BME280;46919;45.816;3.104;2023-03-13T08:13:46;97210.53;;;9.94;100.00
61039;BME280;46919;45.816;3.104;2023-03-13T08:16:21;97211.06;;;10.08;100.00
61039;BME280;46919;45.816;3.104;2023-03-13T08:18:49;97209.00;;;10.27;100.00
61039;BME280;46919;45.816;3.104;2023-03-13T08:21:22;97206.88;;;10.53;100.00
61039;BME280;46919;45.816;3.104;2023-03-13T08:23:51;97207.47;;;10.72;100.00
61039;BME280;46919;45.816;3.104;2023-03-13T08:26:19;97217.59;;;10.94;100.00
61039;BME280;46919;45.816;3.104;2023-03-13T08:28:46;97213.91;;;11.34;100.00
61039;BME280;46919;45.816;3.104;2023-03-13T08:31:22;97204.28;;;11.77;100.00
61039;BME280;46919;45.816;3.104;2023-03-13T08:33:48;97195.38;;;11.99;100.00
61039;BME280;46919;45.816;3.104;2023-03-13T08:36:22;97191.44;;;12.06;100.00
61039;BME280;46919;45.816;3.104;2023-03-13T08:38:50;97184.56;;;11.99;100.00
61039;BME280;46919;45.816;3.104;2023-03-13T08:41:21;97177.03;;;12.01;100.00
61039;BME280;46919;45.816;3.104;2023-03-13T08:43:47;97182.81;;;12.09;100.00
61039;BME280;46919;45.816;3.104;2023-03-13T08:46:14;97172.63;;;12.17;100.00
61039;BME280;46919;45.816;3.104;2023-03-13T08:48:40;97172.97;;;12.25;100.00
61039;BME280;46919;45.816;3.104;2023-03-13T08:51:14;97170.66;;;12.34;100.00
61039;BME280;46919;45.816;3.104;2023-03-13T08:53:42;97165.31;;;12.44;100.00
61039;BME280;46919;45.816;3.104;2023-03-13T08:56:12;97165.84;;;12.41;100.00
61039;BME280;46919;45.816;3.104;2023-03-13T08:58:38;97159.94;;;12.49;100.00
61039;BME280;46919;45.816;3.104;2023-03-13T09:01:13;97161.84;;;12.76;100.00
61039;BME280;46919;45.816;3.104;2023-03-13T09:03:40;97152.91;;;13.08;99.94
61039;BME280;46919;45.816;3.104;2023-03-13T09:06:07;97153.72;;;13.41;98.37
61039;BME280;46919;45.816;3.104;2023-03-13T09:08:33;97145.78;;;13.72;97.08
61039;BME280;46919;45.816;3.104;2023-03-13T09:11:01;97141.53;;;13.97;95.74
61039;BME280;46919;45.816;3.104;2023-03-13T09:13:28;97153.63;;;14.31;94.82
61039;BME280;46919;45.816;3.104;2023-03-13T09:15:59;97149.38;;;14.66;93.09
61039;BME280;46919;45.816;3.104;2023-03-13T09:18:25;97140.72;;;15.06;91.59
61039;BME280;46919;45.816;3.104;2023-03-13T09:20:51;97125.19;;;15.37;90.98
61039;BME280;46919;45.816;3.104;2023-03-13T09:23:17;97125.16;;;15.57;89.10
61039;BME280;46919;45.816;3.104;2023-03-13T09:25:42;97114.47;;;15.87;88.71
61039;BME280;46919;45.816;3.104;2023-03-13T09:28:08;97113.88;;;15.95;88.02
61039;BME280;46919;45.816;3.104;2023-03-13T09:30:33;97108.75;;;15.88;86.92
61039;BME280;46919;45.816;3.104;2023-03-13T09:32:59;97099.22;;;15.75;86.30
61039;BME280;46919;45.816;3.104;2023-03-13T09:35:24;97093.50;;;15.82;86.61
61039;BME280;46919;45.816;3.104;2023-03-13T09:37:50;97090.50;;;15.84;86.41
61039;BME280;46919;45.816;3.104;2023-03-13T09:40:18;97078.53;;;15.85;85.74
61039;BME280;46919;45.816;3.104;2023-03-13T09:42:49;97077.59;;;16.05;85.02
61039;BME280;46919;45.816;3.104;2023-03-13T09:45:32;97073.44;;;16.18;84.23
61039;BME280;46919;45.816;3.104;2023-03-13T09:48:04;97070.06;;;16.36;82.65
61039;BME280;46919;45.816;3.104;2023-03-13T09:50:39;97064.84;;;16.40;81.94
61039;BME280;46919;45.816;3.104;2023-03-13T09:53:43;97064.44;;;16.62;82.34
61039;BME280;46919;45.816;3.104;2023-03-13T09:56:14;97036.16;;;16.87;81.11
61039;BME280;46919;45.816;3.104;2023-03-13T09:58:53;97036.31;;;17.01;79.89
61039;BME280;46919;45.816;3.104;2023-03-13T10:01:23;97026.69;;;17.09;78.47
61039;BME280;46919;45.816;3.104;2023-03-13T10:06:48;97024.41;;;17.16;77.74
61039;BME280;46919;45.816;3.104;2023-03-13T10:09:27;97022.75;;;17.44;77.26
61039;BME280;46919;45.816;3.104;2023-03-13T10:19:38;96997.50;;;17.77;73.55
61039;BME280;46919;45.816;3.104;2023-03-13T10:22:12;96992.78;;;17.82;73.50
61039;BME280;46919;45.816;3.104;2023-03-13T10:24:48;96987.25;;;17.87;73.49
61039;BME280;46919;45.816;3.104;2023-03-13T10:27:15;96961.28;;;18.09;72.20
61039;BME280;46919;45.816;3.104;2023-03-13T10:29:40;96967.03;;;18.26;69.75
61039;BME280;46919;45.816;3.104;2023-03-13T10:32:10;96947.66;;;18.42;69.06
61039;BME280;46919;45.816;3.104;2023-03-13T10:34:56;96938.66;;;18.55;67.95
61039;BME280;46919;45.816;3.104;2023-03-13T10:37:30;96928.66;;;18.64;67.81
61039;BME280;46919;45.816;3.104;2023-03-13T10:40:22;96923.59;;;18.72;67.53
61039;BME280;46919;45.816;3.104;2023-03-13T10:42:50;96927.25;;;18.67;67.90
61039;BME280;46919;45.816;3.104;2023-03-13T10:45:17;96913.34;;;18.77;66.61
61039;BME280;46919;45.816;3.104;2023-03-13T10:47:43;96908.63;;;18.83;66.84
61039;BME280;46919;45.816;3.104;2023-03-13T10:50:17;96893.03;;;18.97;64.82
61039;BME280;46919;45.816;3.104;2023-03-13T10:52:47;96894.16;;;19.24;65.50
61039;BME280;46919;45.816;3.104;2023-03-13T10:55:24;96879.78;;;19.55;64.75
61039;BME280;46919;45.816;3.104;2023-03-13T10:58:00;96872.03;;;19.71;64.71
61039;BME280;46919;45.816;3.104;2023-03-13T11:02:57;96875.19;;;19.64;65.37
61039;BME280;46919;45.816;3.104;2023-03-13T11:05:32;96845.75;;;19.70;59.80
61039;BME280;46919;45.816;3.104;2023-03-13T11:08:27;96811.09;;;19.88;57.38
61039;BME280;46919;45.816;3.104;2023-03-13T11:10:57;96804.56;;;20.29;52.94
61039;BME280;46919;45.816;3.104;2023-03-13T11:13:32;96811.94;;;20.51;55.32
61039;BME280;46919;45.816;3.104;2023-03-13T11:16:49;96800.91;;;20.42;56.85
61039;BME280;46919;45.816;3.104;2023-03-13T11:21:59;96777.19;;;20.87;53.36
61039;BME280;46919;45.816;3.104;2023-03-13T11:30:18;96746.88;;;21.27;46.80
61039;BME280;46919;45.816;3.104;2023-03-13T11:32:54;96757.72;;;21.41;47.39
61039;BME280;46919;45.816;3.104;2023-03-13T11:35:36;96752.41;;;21.70;48.38
61039;BME280;46919;45.816;3.104;2023-03-13T11:38:35;96754.19;;;21.75;49.03
61039;BME280;46919;45.816;3.104;2023-03-13T11:53:27;96706.84;;;22.85;46.80
61039;BME280;46919;45.816;3.104;2023-03-13T11:56:55;96713.81;;;23.33;43.57
61039;BME280;46919;45.816;3.104;2023-03-13T12:01:54;96707.22;;;23.05;34.14
61039;BME280;46919;45.816;3.104;2023-03-13T12:04:26;96704.06;;;23.15;36.93
61039;BME280;46919;45.816;3.104;2023-03-13T12:07:04;96702.38;;;23.02;35.87
61039;BME280;46919;45.816;3.104;2023-03-13T12:12:00;96683.75;;;22.98;34.78
61039;BME280;46919;45.816;3.104;2023-03-13T12:14:40;96700.63;;;23.18;34.78
61039;BME280;46919;45.816;3.104;2023-03-13T12:17:14;96674.88;;;23.35;34.56
61039;BME280;46919;45.816;3.104;2023-03-13T12:19:59;96676.97;;;23.72;34.98
61039;BME280;46919;45.816;3.104;2023-03-13T12:22:27;96677.88;;;23.97;34.43
61039;BME280;46919;45.816;3.104;2023-03-13T12:25:05;96670.50;;;24.01;34.56
61039;BME280;46919;45.816;3.104;2023-03-13T12:27:40;96669.41;;;24.51;33.77
61039;BME280;46919;45.816;3.104;2023-03-13T12:30:30;96658.66;;;24.87;31.76
61039;BME280;46919;45.816;3.104;2023-03-13T12:35:26;96634.00;;;25.06;33.07
61039;BME280;46919;45.816;3.104;2023-03-13T12:38:21;96631.34;;;24.57;32.72
61039;BME280;46919;45.816;3.104;2023-03-13T12:43:35;96643.97;;;24.70;32.28
61039;BME280;46919;45.816;3.104;2023-03-13T12:59:34;96596.09;;;24.29;33.49
61039;BME280;46919;45.816;3.104;2023-03-13T13:02:14;96582.25;;;24.66;31.78
61039;BME280;46919;45.816;3.104;2023-03-13T13:04:47;96575.59;;;24.67;32.65
61039;BME280;46919;45.816;3.104;2023-03-13T13:07:30;96565.38;;;24.55;33.90
61039;BME280;46919;45.816;3.104;2023-03-13T13:12:44;96543.66;;;24.17;33.32
61039;BME280;46919;45.816;3.104;2023-03-13T13:17:59;96544.09;;;24.31;33.88
61039;BME280;46919;45.816;3.104;2023-03-13T13:23:29;96541.63;;;23.31;34.73
61039;BME280;46919;45.816;3.104;2023-03-13T13:28:52;96510.94;;;23.08;35.40
61039;BME280;46919;45.816;3.104;2023-03-13T13:36:55;96488.44;;;23.18;35.67
61039;BME280;46919;45.816;3.104;2023-03-13T13:41:58;96465.50;;;23.39;36.12
61039;BME280;46919;45.816;3.104;2023-03-13T13:44:28;96454.94;;;23.65;35.64
61039;BME280;46919;45.816;3.104;2023-03-13T13:46:55;96435.16;;;23.39;35.85
61039;BME280;46919;45.816;3.104;2023-03-13T13:49:27;96431.50;;;23.84;35.33
61039;BME280;46919;45.816;3.104;2023-03-13T13:57:18;96408.91;;;24.07;33.77
61039;BME280;46919;45.816;3.104;2023-03-13T14:00:18;96417.19;;;24.07;34.03
61039;BME280;46919;45.816;3.104;2023-03-13T14:02:55;96414.50;;;24.22;33.48
61039;BME280;46919;45.816;3.104;2023-03-13T14:05:25;96390.94;;;24.25;32.22
61039;BME280;46919;45.816;3.104;2023-03-13T14:08:07;96381.06;;;24.12;30.91
61039;BME280;46919;45.816;3.104;2023-03-13T14:10:43;96370.44;;;24.26;31.40
61039;BME280;46919;45.816;3.104;2023-03-13T14:13:19;96371.34;;;24.30;30.56
61039;BME280;46919;45.816;3.104;2023-03-13T14:15:49;96344.53;;;24.31;30.52
61039;BME280;46919;45.816;3.104;2023-03-13T14:18:25;96352.28;;;24.25;30.00
61039;BME280;46919;45.816;3.104;2023-03-13T14:21:02;96346.03;;;24.28;30.22
61039;BME280;46919;45.816;3.104;2023-03-13T14:23:36;96339.53;;;24.20;29.09
61039;BME280;46919;45.816;3.104;2023-03-13T14:26:15;96345.63;;;24.14;29.66
61039;BME280;46919;45.816;3.104;2023-03-13T14:28:44;96343.03;;;24.05;29.38
61039;BME280;46919;45.816;3.104;2023-03-13T14:31:21;96330.47;;;24.08;28.69
61039;BME280;46919;45.816;3.104;2023-03-13T14:33:47;96315.75;;;24.16;28.43
61039;BME280;46919;45.816;3.104;2023-03-13T14:36:13;96338.72;;;24.20;28.43
61039;BME280;46919;45.816;3.104;2023-03-13T14:38:38;96325.72;;;24.20;28.67
61039;BME280;46919;45.816;3.104;2023-03-13T14:41:05;96300.97;;;24.24;28.97